Main page
METAR-TAF:

METAR-TAF

Airports :

Le Touquet, France

Le Touquet – Côte d'Opale Airport

latitude: 50-30-53N, longitude: 001-37-39E, elevation: 6 m

Current weather observation

The report was made 23 minutes ago, at 23:00 UTC
Wind 2 kt from the Southeast
Temperature 15°C
Humidity 100%
Pressure 1014 hPa
Visibility 10 km or more
Few clouds at a height of 2700 ft
Scattered clouds at a height of 5400 ft
Broken clouds at a height of 8000 ft

METAR: LFAT 172300Z AUTO 14002KT 9999 FEW027 SCT054 BKN080 15/15 Q1014

Time: 01:23 (23:23 UTC)

Forecast

The report was made 9 hours and 23 minutes ago, at 14:00 UTC
Forecast valid from 17 at 15 UTC to 17 at 24 UTC
Wind 12 kt from the West/Southwest
Visibility 10 km or more
Overcast at a height of 1000 ft
Becoming
from 17 at 15 UTC to 17 at 16 UTC
Broken clouds at a height of 2000 ft

TAF: LFAT 171400Z 1715/1724 24012KT 9999 OVC010 BECMG 1715/1716 BKN020

Weather observations and forecasts of more than 4000 airports (METAR and TAF reports).

The available stations are represented by yellow and red dots on the map.

Hover mouse over dot to see the name of the station.

Then click to see weather observations and forecasts.

To change the map : click on the green buttons with a black cross to zoom in, on the green button with a dash to zoom out, or on the green arrows for adjacent maps.


METAR-TAF: